Delta Virtual Airport Information Service

Orlando International Airport

ICAO: KMCO Country: United States
Latitude: 28.4294 Longitude: -81.3089
Latest Arrival : UAL776 (1B) (KORD-KMCO) Latest Departure : AAL2232 (B) (KMCO-KMIA)


WX CaptureLIVE
Data provided by noaa.gov | Fetched at 12:35:40

METAR : KMCO 281706Z 19011KT 10SM SCT011 SCT023 BKN100 OVC220 28/25 A2976 RMK AO2 T02780250

TAF : KMCO 281508Z 2815/2918 19011KT P6SM VCSH SCT025 BKN050 OVC080 TEMPO 2816/2817 3SM TSRA BKN025CB FM281700 22016G24KT P6SM VCTS BKN025CB BKN050 TEMPO 2820/2822 26025G35KT 2SM +TSRA BKN020CB FM282200 23013G19KT P6SM VCSH BKN025 BKN050 FM290300 24011KT P6SM SCT045 FM291500 23014G20KT P6SM BKN040


Runway Data for KMCO
Data provided by openaviationdata.com

Runway ID Mag Var Hdg Length Elevation Surface ILS Freq ILS Id ILS Slope
17L -5 184° 9025 ft 96 ft Concrete 110.95 IARK 3
17R -5 184° 10027 ft 96 ft Concrete 111.75 IDIZ 3
18L -5 184° 12037 ft 96 ft Asphalt -- -- --
18R -5 184° 12037 ft 96 ft Concrete 111.9 ITFE 3
35L -5 10027 ft 96 ft Concrete 110.5 IDDO 3
35R -5 9025 ft 96 ft Concrete 111.15 ICER 3
36L -5 12037 ft 96 ft Concrete -- -- --
36R -5 12037 ft 96 ft Asphalt 110.7 IOJP 3

Orlando International Airport, United States
Use only for reference purposes



Not for navigational purposes.